createdAt,value
2016-11-19T00:00:38.331Z,931.48
2016-11-19T00:02:22.447Z,931.45
2016-11-19T00:03:36.098Z,931.48
2016-11-19T00:04:48.559Z,931.48
2016-11-19T00:06:01.516Z,931.57
2016-11-19T00:07:13.400Z,931.49
2016-11-19T00:08:26.920Z,931.49
2016-11-19T00:09:40.294Z,931.53
2016-11-19T00:10:52.681Z,931.52
2016-11-19T00:12:05.115Z,931.43
2016-11-19T00:13:18.034Z,931.51
2016-11-19T00:14:31.736Z,931.52
2016-11-19T00:15:44.636Z,931.58
2016-11-19T00:16:57.651Z,931.63
2016-11-19T00:18:10.587Z,931.65
2016-11-19T00:19:24.048Z,931.68
2016-11-19T00:20:37.266Z,931.62
2016-11-19T00:21:50.775Z,931.67
2016-11-19T00:23:04.189Z,931.68
2016-11-19T00:24:17.678Z,931.66
2016-11-19T00:25:30.777Z,931.72
2016-11-19T00:26:42.726Z,931.68
2016-11-19T00:27:55.724Z,931.68
2016-11-19T00:29:09.351Z,931.64
2016-11-19T00:30:22.858Z,931.64
2016-11-19T00:31:35.903Z,931.7
2016-11-19T00:32:49.417Z,931.67
2016-11-19T00:34:01.816Z,931.66
2016-11-19T00:35:13.772Z,931.56
2016-11-19T00:36:26.775Z,931.69
2016-11-19T00:37:39.223Z,931.63
2016-11-19T00:38:52.179Z,931.6
2016-11-19T00:40:05.620Z,931.62
2016-11-19T00:41:19.024Z,931.58
2016-11-19T00:42:30.893Z,931.61
2016-11-19T00:43:44.461Z,931.64
2016-11-19T00:44:57.881Z,931.67
2016-11-19T00:46:11.364Z,931.71
2016-11-19T00:47:24.463Z,931.64
2016-11-19T00:48:37.996Z,931.57
2016-11-19T00:49:51.489Z,931.64
2016-11-19T00:51:03.884Z,931.54
2016-11-19T00:52:16.331Z,931.59
2016-11-19T00:54:00.422Z,931.66
2016-11-19T00:55:13.909Z,931.76
2016-11-19T00:56:26.869Z,931.69
2016-11-19T00:57:39.359Z,931.67
2016-11-19T00:58:52.799Z,931.7
2016-11-19T01:00:06.267Z,931.56
2016-11-19T01:01:19.239Z,931.58
2016-11-19T01:02:32.792Z,931.55
2016-11-19T01:03:46.286Z,931.56
2016-11-19T01:04:59.297Z,931.6
2016-11-19T01:06:12.317Z,931.61
2016-11-19T01:07:25.869Z,931.63
2016-11-19T01:08:38.982Z,931.64
2016-11-19T01:09:51.993Z,931.64
2016-11-19T01:11:05.484Z,931.66
2016-11-19T01:12:19.061Z,931.54
2016-11-19T01:13:32.538Z,931.61
2016-11-19T01:14:45.018Z,931.54
2016-11-19T01:15:58.499Z,931.5
2016-11-19T01:17:10.888Z,931.56
2016-11-19T01:18:23.276Z,931.57
2016-11-19T01:19:37.019Z,931.65
2016-11-19T01:20:50.691Z,931.63
2016-11-19T01:22:04.110Z,931.61
2016-11-19T01:23:17.593Z,931.66
2016-11-19T01:24:31.015Z,931.66
2016-11-19T01:25:44.463Z,931.72
2016-11-19T01:26:57.957Z,931.66
2016-11-19T01:28:11.421Z,931.67
2016-11-19T01:29:23.897Z,931.59
2016-11-19T01:30:36.476Z,931.54
2016-11-19T01:31:49.949Z,931.59
2016-11-19T01:33:02.384Z,931.58
2016-11-19T01:34:14.833Z,931.55
2016-11-19T01:35:27.231Z,931.58
2016-11-19T01:36:40.178Z,931.57
2016-11-19T01:37:52.117Z,931.53
2016-11-19T01:39:04.538Z,931.55
2016-11-19T01:40:16.960Z,931.54
2016-11-19T01:41:30.602Z,931.53
2016-11-19T01:42:44.101Z,931.48
2016-11-19T01:43:57.671Z,931.5
2016-11-19T01:45:10.577Z,931.46
2016-11-19T01:46:24.143Z,931.47
2016-11-19T01:47:37.101Z,931.48
2016-11-19T01:48:50.099Z,931.45
2016-11-19T01:50:03.618Z,931.48
2016-11-19T01:51:17.068Z,931.48
2016-11-19T01:52:30.657Z,931.47
2016-11-19T01:53:43.129Z,931.42
2016-11-19T01:54:56.074Z,931.63
2016-11-19T01:56:08.499Z,931.42
2016-11-19T01:57:22.021Z,931.41
2016-11-19T01:58:35.472Z,931.44
2016-11-19T01:59:48.533Z,931.51
2016-11-19T02:01:01.987Z,931.43
2016-11-19T02:02:14.383Z,931.43
2016-11-19T02:03:27.404Z,931.38
2016-11-19T02:04:40.391Z,931.42
2016-11-19T02:05:53.334Z,931.36
2016-11-19T02:07:06.787Z,931.31
2016-11-19T02:08:19.764Z,931.3
2016-11-19T02:09:33.253Z,931.27
2016-11-19T02:10:46.902Z,931.37
2016-11-19T02:12:00.427Z,931.33
2016-11-19T02:13:13.918Z,931.38
2016-11-19T02:14:26.914Z,931.27
2016-11-19T02:15:40.415Z,931.36
2016-11-19T02:16:53.395Z,931.19
2016-11-19T02:18:05.295Z,931.17
2016-11-19T02:19:18.346Z,931.15
2016-11-19T02:20:30.748Z,931.14
2016-11-19T02:21:43.661Z,931.07
2016-11-19T02:22:57.169Z,931.11
2016-11-19T02:24:09.579Z,931.16
2016-11-19T02:25:23.064Z,931.16
2016-11-19T02:26:35.970Z,931.14
2016-11-19T02:27:49.534Z,931.11
2016-11-19T02:29:02.422Z,931.17
2016-11-19T02:30:14.980Z,931.16
2016-11-19T02:31:27.915Z,931.18
2016-11-19T02:32:40.365Z,931.16
2016-11-19T02:33:52.229Z,931.16
2016-11-19T02:35:05.754Z,931.16
2016-11-19T02:36:18.208Z,931.11
2016-11-19T02:37:31.715Z,931.01
2016-11-19T02:38:44.691Z,931
2016-11-19T02:39:57.647Z,931
2016-11-19T02:41:10.703Z,931.04
2016-11-19T02:42:24.210Z,931.05
2016-11-19T02:43:36.648Z,931.08
2016-11-19T02:44:50.202Z,931.02
2016-11-19T02:46:02.632Z,931.02
2016-11-19T02:47:16.135Z,931.06
2016-11-19T02:48:29.595Z,931.05
2016-11-19T02:49:43.187Z,931.04
2016-11-19T02:50:56.661Z,931.04
2016-11-19T02:52:10.222Z,931.08
2016-11-19T02:53:23.165Z,931.01
2016-11-19T02:54:35.628Z,930.96
2016-11-19T02:55:49.133Z,930.99
2016-11-19T02:57:02.056Z,930.89
2016-11-19T02:58:15.152Z,930.88
2016-11-19T02:59:27.602Z,930.86
2016-11-19T03:00:40.060Z,930.9
2016-11-19T03:01:52.496Z,930.87
2016-11-19T03:03:05.647Z,930.88
2016-11-19T03:04:18.131Z,930.85
2016-11-19T03:05:31.618Z,930.82
2016-11-19T03:06:45.147Z,930.84
2016-11-19T03:07:57.588Z,930.89
2016-11-19T03:09:11.193Z,930.79
2016-11-19T03:10:24.109Z,930.81
2016-11-19T03:11:36.989Z,930.78
2016-11-19T03:12:48.849Z,930.86
2016-11-19T03:14:01.957Z,930.91
2016-11-19T03:15:14.923Z,930.87
2016-11-19T03:16:27.852Z,930.84
2016-11-19T03:17:40.785Z,930.84
2016-11-19T03:18:53.789Z,930.74
2016-11-19T03:20:07.236Z,930.72
2016-11-19T03:21:19.136Z,930.7
2016-11-19T03:22:32.627Z,930.65
2016-11-19T03:23:44.499Z,930.61
2016-11-19T03:24:56.432Z,930.45
2016-11-19T03:26:09.896Z,930.41
2016-11-19T03:27:23.390Z,930.43
2016-11-19T03:28:36.848Z,930.4
2016-11-19T03:29:49.778Z,930.43
2016-11-19T03:31:02.259Z,930.31
2016-11-19T03:32:15.715Z,930.33
2016-11-19T03:33:29.253Z,930.4
2016-11-19T03:34:42.222Z,930.36
2016-11-19T03:35:54.824Z,930.34
2016-11-19T03:37:08.346Z,930.38
2016-11-19T03:38:21.875Z,930.39
2016-11-19T03:39:35.348Z,930.36
2016-11-19T03:40:48.289Z,930.3
2016-11-19T03:42:01.212Z,930.34
2016-11-19T03:43:14.136Z,930.25
2016-11-19T03:44:27.113Z,930.21
2016-11-19T03:45:40.736Z,930.16
2016-11-19T03:46:54.033Z,930.18
2016-11-19T03:48:06.950Z,930.22
2016-11-19T03:49:19.862Z,930.26
2016-11-19T03:50:33.339Z,930.26
2016-11-19T03:51:46.269Z,930.22
2016-11-19T03:52:58.865Z,930.17
2016-11-19T03:54:11.798Z,930.19
2016-11-19T03:55:25.372Z,930.25
2016-11-19T03:56:38.343Z,930.21
2016-11-19T03:57:51.972Z,930.14
2016-11-19T03:59:04.879Z,930.09
2016-11-19T04:00:18.311Z,930.03
2016-11-19T04:01:31.208Z,930.02
2016-11-19T04:02:44.680Z,930.06
2016-11-19T04:03:58.271Z,929.99
2016-11-19T04:05:11.774Z,929.97
2016-11-19T04:06:25.265Z,929.97
2016-11-19T04:07:38.603Z,929.93
2016-11-19T04:08:52.129Z,929.95
2016-11-19T04:10:05.619Z,929.92
2016-11-19T04:11:19.204Z,929.94
2016-11-19T04:12:32.733Z,929.97
2016-11-19T04:13:46.250Z,930.02
2016-11-19T04:14:59.705Z,930.02
2016-11-19T04:16:13.214Z,930
2016-11-19T04:17:26.674Z,929.96
2016-11-19T04:18:39.618Z,929.93
2016-11-19T04:19:52.634Z,929.92
2016-11-19T04:21:05.632Z,929.85
2016-11-19T04:22:19.091Z,929.91
2016-11-19T04:23:31.526Z,929.84
2016-11-19T04:24:44.489Z,929.82
2016-11-19T04:25:56.393Z,929.8
2016-11-19T04:27:09.338Z,929.76
2016-11-19T04:28:22.256Z,929.74
2016-11-19T04:29:35.169Z,929.74
2016-11-19T04:30:47.769Z,929.77
2016-11-19T04:32:00.704Z,929.74
2016-11-19T04:33:13.664Z,929.72
2016-11-19T04:34:26.645Z,929.72
2016-11-19T04:35:39.603Z,929.67
2016-11-19T04:36:53.175Z,929.67
2016-11-19T04:38:06.096Z,929.68
2016-11-19T04:39:19.638Z,929.61
2016-11-19T04:40:33.109Z,929.66
2016-11-19T04:41:46.782Z,929.66
2016-11-19T04:42:59.753Z,929.69
2016-11-19T04:44:13.250Z,929.67
2016-11-19T04:45:26.155Z,929.76
2016-11-19T04:46:39.572Z,929.72
2016-11-19T04:47:53.158Z,929.73
2016-11-19T04:49:03.946Z,929.7
2016-11-19T04:50:16.869Z,929.7
2016-11-19T04:51:29.308Z,929.66
2016-11-19T04:52:42.321Z,929.6
2016-11-19T04:53:54.722Z,929.56
2016-11-19T04:55:08.195Z,929.56
2016-11-19T04:56:21.120Z,929.55
2016-11-19T04:57:34.014Z,929.59
2016-11-19T04:58:47.434Z,929.61
2016-11-19T05:00:00.360Z,929.54
2016-11-19T05:01:13.303Z,929.51
2016-11-19T05:02:26.330Z,929.52
2016-11-19T05:03:39.484Z,929.5
2016-11-19T05:04:52.436Z,929.49
2016-11-19T05:06:04.884Z,929.53
2016-11-19T05:07:16.744Z,929.52
2016-11-19T05:08:29.155Z,929.52
2016-11-19T05:09:42.652Z,929.53
2016-11-19T05:10:55.650Z,929.49
2016-11-19T05:12:09.084Z,929.43
2016-11-19T05:13:22.559Z,929.39
2016-11-19T05:14:35.628Z,929.36
2016-11-19T05:15:48.604Z,929.25
2016-11-19T05:17:01.059Z,929.19
2016-11-19T05:18:45.118Z,929.26
2016-11-19T05:19:58.619Z,929.22
2016-11-19T05:21:12.076Z,929.22
2016-11-19T05:22:25.525Z,929.26
2016-11-19T05:23:38.479Z,929.17
2016-11-19T05:24:51.976Z,929.16
2016-11-19T05:26:04.830Z,929.19
2016-11-19T05:27:17.253Z,929.28
2016-11-19T05:28:29.689Z,929.35
2016-11-19T05:31:27.601Z,929.39
2016-11-19T05:32:39.966Z,929.4
2016-11-19T05:33:52.932Z,929.47
2016-11-19T05:35:06.420Z,929.41
2016-11-19T05:36:20.101Z,929.48
2016-11-19T05:37:32.552Z,929.54
2016-11-19T05:38:45.970Z,929.51
2016-11-19T05:39:58.386Z,929.52
2016-11-19T05:41:11.510Z,929.45
2016-11-19T05:42:24.481Z,929.41
2016-11-19T05:43:37.491Z,929.4
2016-11-19T05:46:34.154Z,929.44
2016-11-19T05:47:46.598Z,929.39
2016-11-19T05:49:00.058Z,929.42
2016-11-19T05:50:13.555Z,929.4
2016-11-19T05:51:27.078Z,929.46
2016-11-19T05:52:40.513Z,929.46
2016-11-19T05:53:53.426Z,929.47
2016-11-19T05:55:06.881Z,929.55
2016-11-19T05:56:20.310Z,929.59
2016-11-19T05:57:33.929Z,929.58
2016-11-19T05:58:47.424Z,929.61
2016-11-19T06:00:00.874Z,929.63
2016-11-19T06:01:14.409Z,929.59
2016-11-19T06:02:27.828Z,929.67
2016-11-19T06:03:40.770Z,929.71
2016-11-19T06:04:53.209Z,929.73
2016-11-19T06:06:06.101Z,929.63
2016-11-19T06:07:19.624Z,929.64
2016-11-19T06:08:32.790Z,929.68
2016-11-19T06:09:46.286Z,929.66
2016-11-19T06:10:59.742Z,929.68
2016-11-19T06:12:12.178Z,929.39
2016-11-19T06:13:25.149Z,929.5
2016-11-19T06:14:38.286Z,929.5
2016-11-19T06:15:51.775Z,929.54
2016-11-19T06:17:04.765Z,929.56
2016-11-19T06:18:17.737Z,929.57
2016-11-19T06:19:30.283Z,929.56
2016-11-19T06:20:43.811Z,929.51
2016-11-19T06:21:57.106Z,929.67
2016-11-19T06:23:10.043Z,929.49
2016-11-19T06:24:23.020Z,929.42
2016-11-19T06:25:35.927Z,929.47
2016-11-19T06:26:48.991Z,929.51
2016-11-19T06:28:02.463Z,929.47
2016-11-19T06:29:15.442Z,929.47
2016-11-19T06:30:28.991Z,929.52
2016-11-19T06:31:41.946Z,929.53
2016-11-19T06:32:54.890Z,929.53
2016-11-19T06:34:08.314Z,929.59
2016-11-19T06:35:21.250Z,929.63
2016-11-19T06:36:34.770Z,929.67
2016-11-19T06:37:47.707Z,929.64
2016-11-19T06:39:01.153Z,929.65
2016-11-19T06:40:14.658Z,929.59
2016-11-19T06:41:28.228Z,929.57
2016-11-19T06:42:41.322Z,929.55
2016-11-19T06:43:54.737Z,929.62
2016-11-19T06:45:07.347Z,929.62
2016-11-19T06:46:20.429Z,929.63
2016-11-19T06:47:33.362Z,929.62
2016-11-19T06:48:46.832Z,929.6
2016-11-19T06:50:00.338Z,929.62
2016-11-19T06:51:12.282Z,929.6
2016-11-19T06:52:57.008Z,929.61
2016-11-19T06:54:09.975Z,929.63
2016-11-19T06:55:22.959Z,929.57
2016-11-19T06:56:36.113Z,929.58
2016-11-19T06:57:49.106Z,929.54
2016-11-19T06:59:02.628Z,929.56
2016-11-19T07:00:15.563Z,929.54
2016-11-19T07:01:27.990Z,929.55
2016-11-19T07:02:40.937Z,929.59
2016-11-19T07:03:54.362Z,929.61
2016-11-19T07:05:07.331Z,929.63
2016-11-19T07:06:19.803Z,929.63
2016-11-19T07:07:33.365Z,929.65
2016-11-19T07:08:46.331Z,929.63
2016-11-19T07:09:58.698Z,929.64
2016-11-19T07:11:12.174Z,929.64
2016-11-19T07:12:25.703Z,929.71
2016-11-19T07:13:38.226Z,929.73
2016-11-19T07:14:51.198Z,929.75
2016-11-19T07:16:04.741Z,929.73
2016-11-19T07:17:18.180Z,929.66
2016-11-19T07:18:31.214Z,929.59
2016-11-19T07:19:44.114Z,929.56
2016-11-19T07:20:56.483Z,929.52
2016-11-19T07:22:08.371Z,929.57
2016-11-19T07:23:21.879Z,929.61
2016-11-19T07:24:34.833Z,929.66
2016-11-19T07:25:48.298Z,929.67
2016-11-19T07:27:01.802Z,929.68
2016-11-19T07:28:14.196Z,929.6
2016-11-19T07:29:27.805Z,929.59
2016-11-19T07:30:41.445Z,929.57
2016-11-19T07:31:53.385Z,929.6
2016-11-19T07:33:06.870Z,929.58
2016-11-19T07:34:19.818Z,929.62
2016-11-19T07:35:32.894Z,929.59
2016-11-19T07:36:45.930Z,929.66
2016-11-19T07:37:58.892Z,929.65
2016-11-19T07:39:12.375Z,929.66
2016-11-19T07:40:24.980Z,929.67
2016-11-19T07:41:37.915Z,929.71
2016-11-19T07:42:50.982Z,929.7
2016-11-19T07:44:03.432Z,929.71
2016-11-19T07:45:16.474Z,929.75
2016-11-19T07:46:28.872Z,929.76
2016-11-19T07:47:41.774Z,929.83
2016-11-19T07:48:55.361Z,929.78
2016-11-19T07:50:08.892Z,929.74
2016-11-19T07:51:21.976Z,929.69
2016-11-19T07:52:35.423Z,929.69
2016-11-19T07:53:48.939Z,929.69
2016-11-19T07:55:01.955Z,929.71
2016-11-19T07:56:15.456Z,929.75
2016-11-19T07:57:28.393Z,929.77
2016-11-19T07:58:41.857Z,929.8
2016-11-19T07:59:54.810Z,929.8
2016-11-19T08:01:07.762Z,929.75
2016-11-19T08:02:21.395Z,929.73
2016-11-19T08:03:34.411Z,929.73
2016-11-19T08:04:47.326Z,929.71
2016-11-19T08:05:59.753Z,929.75
2016-11-19T08:07:12.195Z,929.75
2016-11-19T08:08:25.688Z,929.75
2016-11-19T08:10:09.751Z,929.8
2016-11-19T08:11:22.711Z,929.83
2016-11-19T08:12:35.253Z,929.87
2016-11-19T08:13:48.726Z,929.94
2016-11-19T08:15:01.115Z,930
2016-11-19T08:16:14.508Z,930.02
2016-11-19T08:17:27.481Z,930.05
2016-11-19T08:18:40.953Z,930.11
2016-11-19T08:19:54.435Z,930.11
2016-11-19T08:21:07.834Z,930.14
2016-11-19T08:22:20.814Z,930.17
2016-11-19T08:23:33.832Z,930.17
2016-11-19T08:24:46.250Z,930.13
2016-11-19T08:25:59.301Z,930.1
2016-11-19T08:27:12.186Z,930.04
2016-11-19T08:28:25.130Z,930.05
2016-11-19T08:29:38.037Z,930.06
2016-11-19T08:30:51.007Z,930.12
2016-11-19T08:32:04.042Z,930.1
2016-11-19T08:33:16.944Z,930.08
2016-11-19T08:34:30.023Z,930.05
2016-11-19T08:35:43.153Z,930.07
2016-11-19T08:36:56.679Z,930.14
2016-11-19T08:38:09.022Z,930.16
2016-11-19T08:39:22.003Z,930.12
2016-11-19T08:40:33.989Z,930.09
2016-11-19T08:41:47.544Z,930.03
2016-11-19T08:43:01.080Z,930.05
2016-11-19T08:44:14.510Z,930.03
2016-11-19T08:45:27.560Z,930.1
2016-11-19T08:46:40.553Z,930.16
2016-11-19T08:47:53.539Z,930.18
2016-11-19T08:49:06.464Z,930.3
2016-11-19T08:50:19.406Z,930.37
2016-11-19T08:51:32.507Z,930.4
2016-11-19T08:52:45.963Z,930.36
2016-11-19T08:53:58.980Z,930.34
2016-11-19T08:55:12.442Z,930.35
2016-11-19T08:56:25.042Z,930.33
2016-11-19T08:57:38.537Z,930.28
2016-11-19T08:58:50.996Z,930.22
2016-11-19T09:00:03.999Z,930.15
2016-11-19T09:01:16.895Z,930.16
2016-11-19T09:02:29.362Z,930.28
2016-11-19T09:03:41.776Z,930.32
2016-11-19T09:04:54.726Z,930.37
2016-11-19T09:06:08.296Z,930.45
2016-11-19T09:07:21.321Z,930.5
2016-11-19T09:08:34.866Z,930.47
2016-11-19T09:09:47.840Z,930.5
2016-11-19T09:11:00.252Z,930.51
2016-11-19T09:12:13.161Z,930.58
2016-11-19T09:13:26.705Z,930.49
2016-11-19T09:14:40.171Z,930.5
2016-11-19T09:15:53.701Z,930.5
2016-11-19T09:17:06.695Z,930.56
2016-11-19T09:18:19.736Z,930.6
2016-11-19T09:19:32.755Z,930.66
2016-11-19T09:20:46.304Z,930.68
2016-11-19T09:21:59.737Z,930.73
2016-11-19T09:23:43.884Z,930.74
2016-11-19T09:24:56.276Z,930.82
2016-11-19T09:26:09.786Z,930.85
2016-11-19T09:27:22.759Z,930.87
2016-11-19T09:28:35.660Z,930.86
2016-11-19T09:29:48.750Z,930.93
2016-11-19T09:31:02.236Z,930.92
2016-11-19T09:32:15.190Z,930.92
2016-11-19T09:33:58.856Z,930.9
2016-11-19T09:35:12.302Z,930.87
2016-11-19T09:36:24.747Z,930.89
2016-11-19T09:37:37.677Z,930.86
2016-11-19T09:38:50.729Z,930.84
2016-11-19T09:40:04.337Z,930.93
2016-11-19T09:41:17.801Z,930.99
2016-11-19T09:43:01.847Z,931.05
2016-11-19T09:44:15.424Z,931.06
2016-11-19T09:45:28.852Z,931.14
2016-11-19T09:46:42.359Z,931.2
2016-11-19T09:47:55.730Z,931.19
2016-11-19T09:49:08.751Z,931.22
2016-11-19T09:50:21.679Z,931.21
2016-11-19T09:51:35.212Z,931.24
2016-11-19T09:52:48.739Z,931.25
2016-11-19T09:54:02.244Z,931.28
2016-11-19T09:55:14.733Z,931.34
2016-11-19T09:56:27.231Z,931.28
2016-11-19T09:57:40.753Z,931.45
2016-11-19T09:58:54.200Z,931.5
2016-11-19T10:00:07.135Z,931.53
2016-11-19T10:01:20.746Z,931.51
2016-11-19T10:02:33.705Z,931.51
2016-11-19T10:03:46.079Z,931.59
2016-11-19T10:04:58.986Z,931.61
2016-11-19T10:06:43.671Z,931.58
2016-11-19T10:07:57.153Z,931.57
2016-11-19T10:09:10.659Z,931.5
2016-11-19T10:10:23.558Z,931.56
2016-11-19T10:11:36.479Z,931.57
2016-11-19T10:12:49.620Z,931.59
2016-11-19T10:14:02.604Z,931.6
2016-11-19T10:15:15.560Z,931.66
2016-11-19T10:16:29.043Z,931.77
2016-11-19T10:17:42.665Z,931.8
2016-11-19T10:18:54.648Z,931.74
2016-11-19T10:20:08.101Z,931.81
2016-11-19T10:21:21.047Z,931.75
2016-11-19T10:22:34.600Z,931.66
2016-11-19T10:23:48.216Z,931.6
2016-11-19T10:25:00.151Z,931.74
2016-11-19T10:26:13.198Z,931.8
2016-11-19T10:27:26.637Z,931.76
2016-11-19T10:29:11.373Z,931.77
2016-11-19T10:30:24.929Z,931.77
2016-11-19T10:31:37.880Z,931.89
2016-11-19T10:32:51.356Z,931.88
2016-11-19T10:34:04.866Z,931.95
2016-11-19T10:35:18.342Z,931.95
2016-11-19T10:36:30.746Z,932.2
2016-11-19T10:37:44.275Z,931.88
2016-11-19T10:38:56.776Z,931.91
2016-11-19T10:40:09.730Z,932.04
2016-11-19T10:41:22.643Z,932.05
2016-11-19T10:42:35.569Z,931.96
2016-11-19T10:43:48.728Z,931.91
2016-11-19T10:45:01.953Z,931.95
2016-11-19T10:46:15.405Z,931.95
2016-11-19T10:47:28.370Z,931.99
2016-11-19T10:48:41.227Z,931.92
2016-11-19T10:49:54.313Z,932.5
2016-11-19T10:51:07.235Z,932.1
2016-11-19T10:52:20.298Z,932.06
2016-11-19T10:53:33.254Z,931.98
2016-11-19T10:54:46.249Z,931.91
2016-11-19T10:55:58.650Z,932.04
2016-11-19T10:57:11.149Z,931.95
2016-11-19T10:58:24.132Z,931.77
2016-11-19T10:59:37.681Z,931.69
2016-11-19T11:00:51.236Z,931.65
2016-11-19T11:02:04.754Z,931.74
2016-11-19T11:03:17.180Z,931.64
2016-11-19T11:04:30.166Z,931.63
2016-11-19T11:05:43.126Z,931.8
2016-11-19T11:06:56.236Z,932.06
2016-11-19T11:08:09.205Z,932.03
2016-11-19T11:09:22.103Z,932.16
2016-11-19T11:10:35.086Z,932.05
2016-11-19T11:11:47.619Z,932.16
2016-11-19T11:13:01.065Z,932.32
2016-11-19T11:14:14.001Z,932.72
2016-11-19T11:15:27.415Z,932.76
2016-11-19T11:16:40.982Z,932.66
2016-11-19T11:17:54.023Z,932.74
2016-11-19T11:19:07.475Z,932.44
2016-11-19T11:20:20.534Z,932.44
2016-11-19T11:21:33.539Z,932.56
2016-11-19T11:24:31.245Z,932.44
2016-11-19T11:25:43.184Z,932.55
2016-11-19T11:26:56.092Z,932.76
2016-11-19T11:28:09.690Z,932.7
2016-11-19T11:29:22.101Z,932.54
2016-11-19T11:30:35.077Z,932.34
2016-11-19T11:31:47.982Z,932.24
2016-11-19T11:33:01.467Z,932.49
2016-11-19T11:34:14.499Z,932.39
2016-11-19T11:35:27.447Z,932.36
2016-11-19T11:36:40.382Z,932.42
2016-11-19T11:37:53.370Z,932.64
2016-11-19T11:39:06.477Z,932.75
2016-11-19T11:40:19.940Z,932.73
2016-11-19T11:41:32.933Z,932.83
2016-11-19T11:42:46.465Z,932.59
2016-11-19T11:43:58.877Z,933.34
2016-11-19T11:45:11.491Z,933.08
2016-11-19T11:46:24.945Z,932.56
2016-11-19T11:47:37.941Z,932.82
2016-11-19T11:48:51.463Z,933
2016-11-19T11:50:04.560Z,932.92
2016-11-19T11:51:17.524Z,932.48
2016-11-19T11:52:30.565Z,932.75
2016-11-19T11:53:43.636Z,933.13
2016-11-19T11:54:57.178Z,933.18
2016-11-19T11:56:10.276Z,933.01
2016-11-19T11:57:22.672Z,932.72
2016-11-19T11:58:36.218Z,932.76
2016-11-19T11:59:49.166Z,933
2016-11-19T12:01:02.827Z,932.87
2016-11-19T12:02:16.322Z,932.68
2016-11-19T12:03:29.340Z,932.42
2016-11-19T12:04:42.253Z,932.65
2016-11-19T12:05:55.718Z,932.82
2016-11-19T12:07:08.678Z,932.86
2016-11-19T12:08:22.137Z,932.7
2016-11-19T12:09:35.212Z,932.95
2016-11-19T12:10:47.612Z,932.8
2016-11-19T12:11:59.072Z,932.71
2016-11-19T12:13:12.084Z,932.69
2016-11-19T12:14:25.031Z,932.74
2016-11-19T12:15:38.033Z,932.5
2016-11-19T12:16:50.970Z,932.65
2016-11-19T12:18:02.974Z,932.63
2016-11-19T12:19:16.019Z,932.55
2016-11-19T12:20:28.932Z,932.83
2016-11-19T12:21:41.886Z,932.61
2016-11-19T12:22:54.880Z,932.74
2016-11-19T12:24:07.445Z,932.64
2016-11-19T12:25:20.430Z,932.31
2016-11-19T12:26:33.937Z,932.6
2016-11-19T12:27:46.752Z,932.75
2016-11-19T12:29:00.360Z,932.92
2016-11-19T12:30:13.414Z,933.14
2016-11-19T12:31:26.890Z,933.34
2016-11-19T12:32:39.300Z,933.21
2016-11-19T12:33:52.341Z,933.33
2016-11-19T12:35:05.832Z,933.17
2016-11-19T12:36:18.341Z,933.22
2016-11-19T12:37:30.803Z,932.95
2016-11-19T12:38:44.322Z,933.29
2016-11-19T12:42:13.529Z,933.07
2016-11-19T12:43:25.955Z,932.97
2016-11-19T12:44:39.541Z,932.81
2016-11-19T12:45:51.994Z,932.83
2016-11-19T12:47:05.556Z,932.62
2016-11-19T12:48:18.531Z,932.51
2016-11-19T12:49:30.484Z,932.49
2016-11-19T12:50:43.524Z,932.77
2016-11-19T12:51:56.512Z,933.09
2016-11-19T12:53:09.958Z,933.18
2016-11-19T12:54:22.944Z,933.38
2016-11-19T12:55:35.517Z,933.23
2016-11-19T12:56:48.494Z,933.26
2016-11-19T12:58:02.076Z,933.21
2016-11-19T12:59:15.669Z,933.28
2016-11-19T13:00:28.739Z,933.07
2016-11-19T13:01:41.371Z,933.23
2016-11-19T13:02:54.389Z,933.22
2016-11-19T13:04:07.424Z,933.1
2016-11-19T13:05:20.903Z,933.05
2016-11-19T13:06:34.016Z,932.73
2016-11-19T13:07:47.525Z,932.4
2016-11-19T13:08:59.948Z,932.73
2016-11-19T13:10:13.417Z,932.58
2016-11-19T13:11:25.843Z,932.61
2016-11-19T13:12:39.516Z,932.81
2016-11-19T13:13:53.126Z,933
2016-11-19T13:15:37.763Z,933.13
2016-11-19T13:16:50.853Z,932.84
2016-11-19T13:18:03.813Z,932.84
2016-11-19T13:19:16.268Z,932.58
2016-11-19T13:20:29.264Z,932.98
2016-11-19T13:21:41.735Z,933.24
2016-11-19T13:22:55.272Z,933.31
2016-11-19T13:24:07.789Z,933.18
2016-11-19T13:25:21.312Z,932.91
2016-11-19T13:26:34.301Z,933.04
2016-11-19T13:27:46.857Z,933.24
2016-11-19T13:28:59.326Z,933.12
2016-11-19T13:30:12.306Z,933.16
2016-11-19T13:31:25.255Z,933.07
2016-11-19T13:32:38.320Z,932.99
2016-11-19T13:33:51.382Z,933.04
2016-11-19T13:35:04.873Z,933.15
2016-11-19T13:36:17.840Z,932.93
2016-11-19T13:37:31.262Z,932.94
2016-11-19T13:38:44.797Z,933.04
2016-11-19T13:39:58.275Z,933.23
2016-11-19T13:41:11.218Z,933.48
2016-11-19T13:42:23.626Z,933.53
2016-11-19T13:43:37.150Z,933.56
2016-11-19T13:44:50.258Z,933.42
2016-11-19T13:46:03.187Z,933.39
2016-11-19T13:47:16.677Z,933.34
2016-11-19T13:48:30.157Z,933.33
2016-11-19T13:49:43.703Z,933.1
2016-11-19T13:50:56.731Z,932.96
2016-11-19T13:52:09.667Z,932.95
2016-11-19T13:53:23.234Z,933.04
2016-11-19T13:54:35.720Z,933.15
2016-11-19T13:55:49.326Z,933.18
2016-11-19T13:57:02.830Z,933.24
2016-11-19T13:58:15.809Z,933.33
2016-11-19T13:59:29.275Z,933.16
2016-11-19T14:00:42.358Z,933.43
2016-11-19T14:01:55.352Z,933.43
2016-11-19T14:03:08.491Z,933.45
2016-11-19T14:04:22.035Z,933.58
2016-11-19T14:05:35.001Z,933.4
2016-11-19T14:06:48.057Z,933.48
2016-11-19T14:08:01.002Z,933.36
2016-11-19T14:09:14.484Z,933.21
2016-11-19T14:10:27.983Z,933.21
2016-11-19T14:11:41.148Z,933.21
2016-11-19T14:12:54.124Z,933.31
2016-11-19T14:14:07.160Z,933.42
2016-11-19T14:15:20.133Z,933.74
2016-11-19T14:16:32.105Z,933.65
2016-11-19T14:17:44.583Z,933.48
2016-11-19T14:18:58.070Z,933.25
2016-11-19T14:20:11.043Z,933.15
2016-11-19T14:21:24.525Z,933.1
2016-11-19T14:22:37.639Z,933.18
2016-11-19T14:23:50.585Z,933.13
2016-11-19T14:25:04.018Z,933.12
2016-11-19T14:26:17.478Z,932.96
2016-11-19T14:27:30.975Z,933.2
2016-11-19T14:28:43.914Z,933.15
2016-11-19T14:29:57.433Z,933.13
2016-11-19T14:31:10.927Z,933.02
2016-11-19T14:32:23.927Z,933.11
2016-11-19T14:33:37.600Z,933.09
2016-11-19T14:34:51.155Z,933.28
2016-11-19T14:36:04.115Z,933.29
2016-11-19T14:37:17.721Z,933.48
2016-11-19T14:38:30.688Z,933.65
2016-11-19T14:39:44.254Z,933.68
2016-11-19T14:40:56.706Z,933.52
2016-11-19T14:42:10.202Z,933.36
2016-11-19T14:43:23.212Z,933.22
2016-11-19T14:44:36.379Z,933.17
2016-11-19T14:45:49.923Z,933.03
2016-11-19T14:47:03.549Z,932.94
2016-11-19T14:48:48.187Z,932.86
2016-11-19T14:50:01.253Z,933.28
2016-11-19T14:51:14.309Z,933.13
2016-11-19T14:52:27.228Z,933.28
2016-11-19T14:53:40.660Z,933.17
2016-11-19T14:54:52.602Z,933.17
2016-11-19T14:56:06.272Z,933.12
2016-11-19T14:57:18.673Z,933.18
2016-11-19T14:58:32.228Z,932.95
2016-11-19T14:59:45.727Z,932.98
2016-11-19T15:00:58.268Z,933.13
2016-11-19T15:02:10.719Z,933.2
2016-11-19T15:03:24.293Z,933.16
2016-11-19T15:04:36.772Z,933.11
2016-11-19T15:05:49.764Z,933.1
2016-11-19T15:07:02.715Z,932.96
2016-11-19T15:08:16.246Z,933.29
2016-11-19T15:09:29.246Z,933.17
2016-11-19T15:10:42.667Z,933.2
2016-11-19T15:11:56.436Z,933.19
2016-11-19T15:13:09.442Z,933.05
2016-11-19T15:14:21.372Z,932.83
2016-11-19T15:15:34.817Z,932.64
2016-11-19T15:16:47.289Z,933.24
2016-11-19T15:18:00.273Z,932.93
2016-11-19T15:19:13.730Z,932.46
2016-11-19T15:20:26.749Z,932.27
2016-11-19T15:21:40.304Z,932.37
2016-11-19T15:22:52.876Z,932.66
2016-11-19T15:24:06.603Z,932.59
2016-11-19T15:25:19.639Z,932.65
2016-11-19T15:26:32.135Z,932.81
2016-11-19T15:27:44.487Z,932.53
2016-11-19T15:28:57.632Z,932.63